createdAt,value
2023-06-29T00:00:35.743Z,65.68
2023-06-29T00:03:23.599Z,62.97
2023-06-29T00:05:51.750Z,60.12
2023-06-29T00:08:20.127Z,57.74
2023-06-29T00:10:48.001Z,59.52
2023-06-29T00:13:15.759Z,62.37
2023-06-29T00:15:44.555Z,64.45
2023-06-29T00:18:14.364Z,62.96
2023-06-29T00:20:42.433Z,60.29
2023-06-29T00:23:10.434Z,57.77
2023-06-29T00:25:40.247Z,60.22
2023-06-29T00:28:08.081Z,64.60
2023-06-29T00:30:35.951Z,63.59
2023-06-29T00:33:03.917Z,60.51
2023-06-29T00:35:31.991Z,57.90
2023-06-29T00:37:59.955Z,60.34
2023-06-29T00:40:27.820Z,63.41
2023-06-29T00:42:56.663Z,62.95
2023-06-29T00:45:24.783Z,61.12
2023-06-29T00:47:52.754Z,58.36
2023-06-29T00:50:23.074Z,57.98
2023-06-29T00:52:51.169Z,60.15
2023-06-29T00:55:19.117Z,63.88
2023-06-29T00:57:46.985Z,62.75
2023-06-29T01:00:14.951Z,60.26
2023-06-29T01:02:43.116Z,57.64
2023-06-29T01:05:11.407Z,59.85
2023-06-29T01:07:39.594Z,60.62
2023-06-29T01:10:07.454Z,66.20
2023-06-29T01:12:35.225Z,64.11
2023-06-29T01:15:03.105Z,60.74
2023-06-29T01:17:32.337Z,57.56
2023-06-29T01:20:00.346Z,57.52
2023-06-29T01:22:28.276Z,60.58
2023-06-29T01:24:56.697Z,64.13
2023-06-29T01:27:24.567Z,63.63
2023-06-29T01:29:56.758Z,61.00
2023-06-29T01:32:27.669Z,57.82
2023-06-29T01:34:55.643Z,58.93
2023-06-29T01:37:23.505Z,60.53
2023-06-29T01:39:51.374Z,64.38
2023-06-29T01:42:19.239Z,64.28
2023-06-29T01:44:47.103Z,61.54
2023-06-29T01:47:14.874Z,59.33
2023-06-29T01:49:42.737Z,57.63
2023-06-29T01:52:10.909Z,59.13
2023-06-29T01:54:38.683Z,61.76
2023-06-29T01:57:06.747Z,66.20
2023-06-29T01:59:34.622Z,64.22
2023-06-29T02:02:02.476Z,60.65
2023-06-29T02:04:30.341Z,57.54
2023-06-29T02:06:58.146Z,58.47
2023-06-29T02:09:25.973Z,60.56
2023-06-29T02:11:53.841Z,64.84
2023-06-29T02:14:21.709Z,64.09
2023-06-29T02:16:50.599Z,60.48
2023-06-29T02:19:18.364Z,57.37
2023-06-29T02:21:46.231Z,58.65
2023-06-29T02:24:14.001Z,60.80
2023-06-29T02:26:41.863Z,65.37
2023-06-29T02:29:09.726Z,63.64
2023-06-29T02:31:37.627Z,60.26
2023-06-29T02:34:05.471Z,57.37
2023-06-29T02:36:33.328Z,58.71
2023-06-29T02:39:01.194Z,61.13
2023-06-29T02:41:29.061Z,65.12
2023-06-29T02:43:56.927Z,63.26
2023-06-29T02:46:24.825Z,59.38
2023-06-29T02:48:52.666Z,57.28
2023-06-29T02:51:20.430Z,59.34
2023-06-29T02:53:48.204Z,60.71
2023-06-29T02:56:16.059Z,65.22
2023-06-29T02:58:43.928Z,63.82
2023-06-29T03:01:11.839Z,59.96
2023-06-29T03:03:39.820Z,57.00
2023-06-29T03:06:07.732Z,58.56
2023-06-29T03:08:35.799Z,60.85
2023-06-29T03:11:03.753Z,64.98
2023-06-29T03:13:31.945Z,63.27
2023-06-29T03:16:02.467Z,59.46
2023-06-29T03:18:30.338Z,57.10
2023-06-29T03:20:58.207Z,59.30
2023-06-29T03:23:26.075Z,61.80
2023-06-29T03:25:53.940Z,65.83
2023-06-29T03:28:21.704Z,63.25
2023-06-29T03:30:49.635Z,60.07
2023-06-29T03:33:17.542Z,57.10
2023-06-29T03:35:45.516Z,58.82
2023-06-29T03:38:13.693Z,62.38
2023-06-29T03:40:41.778Z,63.29
2023-06-29T03:43:09.625Z,61.10
2023-06-29T03:45:37.492Z,59.38
2023-06-29T03:48:05.430Z,57.49
2023-06-29T03:50:33.429Z,59.61
2023-06-29T03:53:01.198Z,62.25
2023-06-29T03:55:29.005Z,65.36
2023-06-29T03:57:59.192Z,62.96
2023-06-29T04:00:27.352Z,59.36
2023-06-29T04:02:55.272Z,58.09
2023-06-29T04:05:23.515Z,60.96
2023-06-29T04:07:51.362Z,65.42
2023-06-29T04:10:19.245Z,62.93
2023-06-29T04:12:47.044Z,60.21
2023-06-29T04:15:14.861Z,57.40
2023-06-29T04:17:42.866Z,58.69
2023-06-29T04:20:11.006Z,60.29
2023-06-29T04:22:38.872Z,65.13
2023-06-29T04:25:06.743Z,63.81
2023-06-29T04:27:35.830Z,59.66
2023-06-29T04:30:04.630Z,58.56
2023-06-29T04:32:32.545Z,60.56
2023-06-29T04:35:03.117Z,65.60
2023-06-29T04:37:38.254Z,64.18
2023-06-29T04:40:06.534Z,60.24
2023-06-29T04:42:34.398Z,58.79
2023-06-29T04:45:02.274Z,60.92
2023-06-29T04:47:33.675Z,65.60
2023-06-29T04:50:01.720Z,62.35
2023-06-29T04:52:29.553Z,59.81
2023-06-29T04:54:57.419Z,57.41
2023-06-29T04:57:26.847Z,59.89
2023-06-29T04:59:56.634Z,62.41
2023-06-29T05:02:24.480Z,65.88
2023-06-29T05:04:52.797Z,63.50
2023-06-29T05:07:20.666Z,60.01
2023-06-29T05:09:48.517Z,58.07
2023-06-29T05:12:16.481Z,59.45
2023-06-29T05:14:44.246Z,61.68
2023-06-29T05:17:12.097Z,66.22
2023-06-29T05:19:40.083Z,64.41
2023-06-29T05:22:07.948Z,60.93
2023-06-29T05:24:35.916Z,58.27
2023-06-29T05:27:03.789Z,59.89
2023-06-29T05:29:31.652Z,64.13
2023-06-29T05:31:59.487Z,62.98
2023-06-29T05:34:27.488Z,60.40
2023-06-29T05:36:55.398Z,58.78
2023-06-29T05:39:23.327Z,60.27
2023-06-29T05:41:51.292Z,64.25
2023-06-29T05:44:19.157Z,63.31
2023-06-29T05:46:47.029Z,61.66
2023-06-29T05:49:14.792Z,58.99
2023-06-29T05:51:43.570Z,60.30
2023-06-29T05:54:11.650Z,64.76
2023-06-29T05:56:39.517Z,62.67
2023-06-29T05:59:07.799Z,60.10
2023-06-29T06:01:36.663Z,58.55
2023-06-29T06:04:05.139Z,59.40
2023-06-29T06:06:33.238Z,62.07
2023-06-29T06:09:01.101Z,64.92
2023-06-29T06:11:29.181Z,62.26
2023-06-29T06:13:57.352Z,58.74
2023-06-29T06:16:25.450Z,59.34
2023-06-29T06:18:53.598Z,61.44
2023-06-29T06:21:21.359Z,64.96
2023-06-29T06:23:49.124Z,63.39
2023-06-29T06:26:16.886Z,60.52
2023-06-29T06:28:44.863Z,57.27
2023-06-29T06:31:24.402Z,58.30
2023-06-29T06:34:00.353Z,61.06
2023-06-29T06:36:28.534Z,65.05
2023-06-29T06:38:56.501Z,62.79
2023-06-29T06:41:24.467Z,59.39
2023-06-29T06:43:52.868Z,57.37
2023-06-29T06:46:20.734Z,59.51
2023-06-29T06:48:49.573Z,63.31
2023-06-29T06:51:17.578Z,62.59
2023-06-29T06:53:45.542Z,59.75
2023-06-29T06:56:14.123Z,57.06
2023-06-29T06:58:43.427Z,59.37
2023-06-29T07:01:11.312Z,62.42
2023-06-29T07:03:39.153Z,61.31
2023-06-29T07:06:06.972Z,56.90
2023-06-29T07:08:36.944Z,56.95
2023-06-29T07:11:04.802Z,59.95
2023-06-29T07:13:32.874Z,63.31
2023-06-29T07:16:00.964Z,60.31
2023-06-29T07:18:28.810Z,56.62
2023-06-29T07:25:58.352Z,60.42
2023-06-29T07:28:26.628Z,64.35
2023-06-29T07:30:55.370Z,62.98
2023-06-29T07:33:23.407Z,58.20
2023-06-29T07:35:51.461Z,56.51
2023-06-29T07:38:19.224Z,58.28
2023-06-29T07:40:50.046Z,62.09
2023-06-29T07:43:18.243Z,63.13
2023-06-29T07:45:46.293Z,57.88
2023-06-29T07:48:14.503Z,56.40
2023-06-29T07:50:42.649Z,58.44
2023-06-29T07:53:10.414Z,59.98
2023-06-29T07:55:38.295Z,63.75
2023-06-29T08:00:36.884Z,57.08
2023-06-29T08:03:05.914Z,57.08
2023-06-29T08:08:05.061Z,61.33
2023-06-29T08:10:33.006Z,63.77
2023-06-29T08:13:06.089Z,59.58
2023-06-29T08:15:34.345Z,55.92
2023-06-29T08:18:02.260Z,56.54
2023-06-29T08:20:30.369Z,57.71
2023-06-29T08:22:58.645Z,59.38
2023-06-29T08:25:26.611Z,61.84
2023-06-29T08:27:54.477Z,63.55
2023-06-29T08:30:22.368Z,59.70
2023-06-29T08:32:50.325Z,56.51
2023-06-29T08:35:18.283Z,56.79
2023-06-29T08:37:46.254Z,59.27
2023-06-29T08:40:14.135Z,60.16
2023-06-29T08:42:42.088Z,63.49
2023-06-29T08:45:09.958Z,60.96
2023-06-29T08:47:37.889Z,56.50
2023-06-29T08:50:05.804Z,56.39
2023-06-29T08:52:33.656Z,58.95
2023-06-29T08:55:01.522Z,61.34
2023-06-29T08:57:29.698Z,62.81
2023-06-29T08:59:57.567Z,60.80
2023-06-29T09:02:26.086Z,55.20
2023-06-29T09:04:54.122Z,55.26
2023-06-29T09:07:22.141Z,57.15
2023-06-29T09:09:50.157Z,59.91
2023-06-29T09:12:18.433Z,59.57
2023-06-29T09:14:46.300Z,63.31
2023-06-29T09:17:14.065Z,61.08
2023-06-29T09:19:43.572Z,56.98
2023-06-29T09:22:11.466Z,56.73
2023-06-29T09:24:52.871Z,58.79
2023-06-29T09:27:28.882Z,60.46
2023-06-29T09:29:58.078Z,60.42
2023-06-29T09:32:25.966Z,63.48
2023-06-29T09:34:53.820Z,60.60
2023-06-29T09:37:23.726Z,55.79
2023-06-29T09:39:51.594Z,55.16
2023-06-29T09:42:19.658Z,58.44
2023-06-29T09:44:47.740Z,59.13
2023-06-29T09:49:49.545Z,61.23
2023-06-29T09:52:17.747Z,61.89
2023-06-29T09:54:45.674Z,62.45
2023-06-29T09:57:13.985Z,57.70
2023-06-29T09:59:41.811Z,55.65
2023-06-29T10:02:12.789Z,58.04
2023-06-29T10:04:40.766Z,58.34
2023-06-29T10:07:09.386Z,58.13
2023-06-29T10:09:38.104Z,60.24
2023-06-29T10:12:08.299Z,60.40
2023-06-29T10:14:36.063Z,60.47
2023-06-29T10:17:04.670Z,61.53
2023-06-29T10:19:32.735Z,61.36
2023-06-29T10:22:00.590Z,61.95
2023-06-29T10:24:28.455Z,61.13
2023-06-29T10:26:56.217Z,62.22
2023-06-29T10:29:26.152Z,60.89
2023-06-29T10:31:54.204Z,57.53
2023-06-29T10:34:21.985Z,57.45
2023-06-29T10:36:50.548Z,58.42
2023-06-29T10:39:18.622Z,58.59
2023-06-29T10:41:46.386Z,59.03
2023-06-29T10:44:14.152Z,59.07
2023-06-29T10:46:42.649Z,58.23
2023-06-29T10:49:11.624Z,59.19
2023-06-29T10:51:39.492Z,60.75
2023-06-29T10:54:07.360Z,59.80
2023-06-29T10:56:35.122Z,60.33
2023-06-29T10:59:03.116Z,60.30
2023-06-29T11:01:30.899Z,59.99
2023-06-29T11:03:58.812Z,60.12
2023-06-29T11:09:14.849Z,59.64
2023-06-29T11:11:42.702Z,59.68
2023-06-29T11:14:10.461Z,60.72
2023-06-29T11:16:38.382Z,61.01
2023-06-29T11:19:06.297Z,60.66
2023-06-29T11:21:34.169Z,59.95
2023-06-29T11:24:02.236Z,60.30
2023-06-29T11:26:30.103Z,60.30
2023-06-29T11:28:57.969Z,60.47
2023-06-29T11:31:25.815Z,60.39
2023-06-29T11:33:53.809Z,59.96
2023-06-29T11:36:21.757Z,59.41
2023-06-29T11:38:49.758Z,59.41
2023-06-29T11:41:17.625Z,59.26
2023-06-29T11:43:45.425Z,59.36
2023-06-29T11:46:13.242Z,59.00
2023-06-29T11:48:41.215Z,57.46
2023-06-29T11:51:09.118Z,58.62
2023-06-29T11:53:36.960Z,56.90
2023-06-29T11:56:04.818Z,56.99
2023-06-29T11:58:32.885Z,57.37
2023-06-29T12:01:00.729Z,57.33
2023-06-29T12:03:28.771Z,57.20
2023-06-29T12:05:56.792Z,56.99
2023-06-29T12:08:24.778Z,56.57
2023-06-29T12:10:52.730Z,56.67
2023-06-29T12:13:20.908Z,56.69
2023-06-29T12:18:19.660Z,56.65
2023-06-29T12:20:47.966Z,56.68
2023-06-29T12:23:16.161Z,56.40
2023-06-29T12:25:44.316Z,55.77
2023-06-29T12:28:12.625Z,56.03
2023-06-29T12:30:41.509Z,56.25
2023-06-29T12:33:09.368Z,55.94
2023-06-29T12:35:37.240Z,55.32
2023-06-29T12:38:05.100Z,54.92
2023-06-29T12:40:34.676Z,55.09
2023-06-29T12:43:02.887Z,55.55
2023-06-29T12:45:30.650Z,55.84
2023-06-29T12:47:58.779Z,56.02
2023-06-29T12:50:26.803Z,55.85
2023-06-29T12:52:54.864Z,55.02
2023-06-29T12:55:22.734Z,55.39
2023-06-29T12:57:50.595Z,54.92
2023-06-29T13:00:22.067Z,54.71
2023-06-29T13:02:50.058Z,54.31
2023-06-29T13:05:18.190Z,54.05
2023-06-29T13:07:46.058Z,53.96
2023-06-29T13:10:14.336Z,54.32
2023-06-29T13:12:42.320Z,53.95
2023-06-29T13:15:10.393Z,53.72
2023-06-29T13:17:38.441Z,53.83
2023-06-29T13:20:06.546Z,53.67
2023-06-29T13:22:35.526Z,53.77
2023-06-29T13:25:04.122Z,53.62
2023-06-29T13:27:32.062Z,53.73
2023-06-29T13:29:59.936Z,53.23
2023-06-29T13:32:27.733Z,53.18
2023-06-29T13:34:55.472Z,54.03
2023-06-29T13:37:24.556Z,54.31
2023-06-29T13:39:53.245Z,54.53
2023-06-29T13:42:21.103Z,54.35
2023-06-29T13:44:49.180Z,54.80
2023-06-29T13:47:17.364Z,55.15
2023-06-29T13:49:45.318Z,55.00
2023-06-29T13:52:13.193Z,54.87
2023-06-29T13:54:41.652Z,54.48
2023-06-29T13:57:09.536Z,54.07
2023-06-29T13:59:37.227Z,52.59
2023-06-29T14:02:05.120Z,52.62
2023-06-29T14:04:33.033Z,53.43
2023-06-29T14:07:01.286Z,53.61
2023-06-29T14:09:31.436Z,53.64
2023-06-29T14:11:59.343Z,53.85
2023-06-29T14:14:27.164Z,53.81
2023-06-29T14:16:54.934Z,53.46
2023-06-29T14:19:22.932Z,53.49
2023-06-29T14:21:50.764Z,52.93
2023-06-29T14:24:18.530Z,52.87
2023-06-29T14:26:46.392Z,51.91
2023-06-29T14:29:14.466Z,52.39
2023-06-29T14:31:42.371Z,52.46
2023-06-29T14:34:10.483Z,52.05
2023-06-29T14:36:38.586Z,51.67
2023-06-29T14:39:06.666Z,51.00
2023-06-29T14:41:34.720Z,51.21
2023-06-29T14:44:05.325Z,50.86
2023-06-29T14:46:33.364Z,51.39
2023-06-29T14:49:01.193Z,51.31
2023-06-29T14:51:30.384Z,51.40
2023-06-29T14:53:58.155Z,51.38
2023-06-29T14:56:26.016Z,51.73
2023-06-29T14:58:54.200Z,51.71
2023-06-29T15:01:22.307Z,51.48
2023-06-29T15:03:52.000Z,51.36
2023-06-29T15:06:20.352Z,51.80
2023-06-29T15:08:48.114Z,51.75
2023-06-29T15:11:15.878Z,51.21
2023-06-29T15:13:43.745Z,50.93
2023-06-29T15:16:11.593Z,50.86
2023-06-29T15:18:50.426Z,50.45
2023-06-29T15:21:22.610Z,50.78
2023-06-29T15:23:50.366Z,51.14
2023-06-29T15:26:18.340Z,51.01
2023-06-29T15:28:46.100Z,51.23
2023-06-29T15:31:13.954Z,51.15
2023-06-29T15:33:42.552Z,50.93
2023-06-29T15:36:10.432Z,50.64
2023-06-29T15:38:38.290Z,50.58
2023-06-29T15:41:06.156Z,50.76
2023-06-29T15:43:34.041Z,50.82
2023-06-29T15:46:02.403Z,50.76
2023-06-29T15:48:30.402Z,50.75
2023-06-29T15:50:58.238Z,50.51
2023-06-29T15:53:26.002Z,50.65
2023-06-29T15:55:53.875Z,50.61
2023-06-29T15:58:21.634Z,50.30
2023-06-29T16:00:49.407Z,50.84
2023-06-29T16:03:17.351Z,50.58
2023-06-29T16:05:45.741Z,50.46
2023-06-29T16:08:13.861Z,50.55
2023-06-29T16:10:41.735Z,50.47
2023-06-29T16:13:09.550Z,50.18
2023-06-29T16:15:37.720Z,50.38
2023-06-29T16:18:05.654Z,50.60
2023-06-29T16:20:33.561Z,50.55
2023-06-29T16:23:01.427Z,50.78
2023-06-29T16:25:29.192Z,50.16
2023-06-29T16:27:57.170Z,50.35
2023-06-29T16:30:25.699Z,50.85
2023-06-29T16:32:53.909Z,50.81
2023-06-29T16:35:21.681Z,50.64
2023-06-29T16:37:49.548Z,50.99
2023-06-29T16:40:17.413Z,51.28
2023-06-29T16:42:45.282Z,51.23
2023-06-29T16:45:13.049Z,51.09
2023-06-29T16:47:41.545Z,51.23
2023-06-29T16:50:10.020Z,51.75
2023-06-29T16:52:37.876Z,51.69
2023-06-29T16:55:05.842Z,51.28
2023-06-29T16:57:38.598Z,51.26
2023-06-29T17:00:09.132Z,51.00
2023-06-29T17:02:39.016Z,51.04
2023-06-29T17:05:07.608Z,51.13
2023-06-29T17:07:36.825Z,50.84
2023-06-29T17:10:05.438Z,51.14
2023-06-29T17:12:33.690Z,51.74
2023-06-29T17:15:08.819Z,52.00
2023-06-29T17:18:04.004Z,52.14
2023-06-29T17:20:31.969Z,52.34
2023-06-29T17:23:00.204Z,52.35
2023-06-29T17:25:28.993Z,52.29
2023-06-29T17:27:56.928Z,52.48
2023-06-29T17:30:24.830Z,52.73
2023-06-29T17:32:52.985Z,52.95
2023-06-29T17:35:21.078Z,53.00
2023-06-29T17:37:48.935Z,53.05
2023-06-29T17:40:16.807Z,53.29
2023-06-29T17:42:44.668Z,53.34
2023-06-29T17:45:12.746Z,53.60
2023-06-29T17:47:40.640Z,53.75
2023-06-29T17:50:08.575Z,53.94
2023-06-29T17:52:36.955Z,54.28
2023-06-29T17:55:04.856Z,54.59
2023-06-29T17:57:32.541Z,54.77
2023-06-29T18:00:00.347Z,54.89
2023-06-29T18:02:28.439Z,55.35
2023-06-29T18:04:58.606Z,55.50
2023-06-29T18:07:27.309Z,55.68
2023-06-29T18:09:55.116Z,55.80
2023-06-29T18:12:22.797Z,55.98
2023-06-29T18:14:52.618Z,56.25
2023-06-29T18:17:20.416Z,56.54
2023-06-29T18:19:48.189Z,56.69
2023-06-29T18:22:15.887Z,56.85
2023-06-29T18:24:43.604Z,57.09
2023-06-29T18:27:11.285Z,57.25
2023-06-29T18:29:38.980Z,57.34
2023-06-29T18:32:06.664Z,57.68
2023-06-29T18:34:34.360Z,57.81
2023-06-29T18:37:02.191Z,58.06
2023-06-29T18:39:29.893Z,58.19
2023-06-29T18:41:57.723Z,58.32
2023-06-29T18:44:25.565Z,58.53
2023-06-29T18:46:53.366Z,58.97
2023-06-29T18:49:21.192Z,58.92
2023-06-29T18:51:49.146Z,59.36
2023-06-29T18:54:16.856Z,59.31
2023-06-29T18:56:44.633Z,59.54
2023-06-29T18:59:13.981Z,59.69
2023-06-29T19:01:42.218Z,59.75
2023-06-29T19:04:10.127Z,59.99
2023-06-29T19:06:37.910Z,60.12
2023-06-29T19:09:05.695Z,60.28
2023-06-29T19:11:33.510Z,60.48
2023-06-29T19:14:01.510Z,60.59
2023-06-29T19:16:29.600Z,60.81
2023-06-29T19:18:57.417Z,60.90
2023-06-29T19:21:32.291Z,61.07
2023-06-29T19:24:07.284Z,61.05
2023-06-29T19:26:35.150Z,61.36
2023-06-29T19:29:03.152Z,61.46
2023-06-29T19:31:31.127Z,61.67
2023-06-29T19:34:00.608Z,61.77
2023-06-29T19:36:29.099Z,61.96
2023-06-29T19:38:56.939Z,62.02
2023-06-29T19:41:24.721Z,64.43
2023-06-29T19:43:52.806Z,65.83
2023-06-29T19:46:20.656Z,57.33
2023-06-29T19:48:48.620Z,55.55
2023-06-29T19:51:16.484Z,56.30
2023-06-29T19:53:44.343Z,57.21
2023-06-29T19:56:13.329Z,57.87
2023-06-29T19:58:47.111Z,58.33
2023-06-29T20:01:19.111Z,58.89
2023-06-29T20:03:46.979Z,59.30
2023-06-29T20:06:15.468Z,59.78
2023-06-29T20:08:43.324Z,60.12
2023-06-29T20:11:11.299Z,60.66
2023-06-29T20:13:39.281Z,61.14
2023-06-29T20:16:07.152Z,61.18
2023-06-29T20:18:35.011Z,61.60
2023-06-29T20:21:02.769Z,61.77
2023-06-29T20:23:30.624Z,65.88
2023-06-29T20:25:58.388Z,64.10
2023-06-29T20:28:26.257Z,57.28
2023-06-29T20:30:54.441Z,56.32
2023-06-29T20:33:22.405Z,57.48
2023-06-29T20:35:50.263Z,59.09
2023-06-29T20:38:18.235Z,60.13
2023-06-29T20:40:46.233Z,60.76
2023-06-29T20:43:16.269Z,61.12
2023-06-29T20:45:48.582Z,61.60
2023-06-29T20:48:16.689Z,61.86
2023-06-29T20:50:44.503Z,61.83
2023-06-29T20:53:12.272Z,65.56
2023-06-29T20:55:39.973Z,63.20
2023-06-29T20:58:10.646Z,57.15
2023-06-29T21:00:38.549Z,56.18
2023-06-29T21:03:07.254Z,57.57
2023-06-29T21:05:35.320Z,58.89
2023-06-29T21:08:03.238Z,60.15
2023-06-29T21:10:31.111Z,60.89
2023-06-29T21:12:58.924Z,61.35
2023-06-29T21:15:26.663Z,61.89
2023-06-29T21:17:55.793Z,65.55
2023-06-29T21:20:23.595Z,62.96
2023-06-29T21:22:51.326Z,57.13
2023-06-29T21:25:19.499Z,56.01
2023-06-29T21:27:47.854Z,57.40
2023-06-29T21:30:16.130Z,58.55
2023-06-29T21:32:43.939Z,59.63
2023-06-29T21:35:12.063Z,60.41
2023-06-29T21:37:39.831Z,60.94
2023-06-29T21:40:08.937Z,61.45
2023-06-29T21:42:37.006Z,65.28
2023-06-29T21:45:04.871Z,62.58
2023-06-29T21:47:32.814Z,56.89
2023-06-29T21:50:00.828Z,55.70
2023-06-29T21:52:29.298Z,57.19
2023-06-29T21:54:57.152Z,58.65
2023-06-29T21:57:25.022Z,59.86
2023-06-29T21:59:52.785Z,60.74
2023-06-29T22:02:20.780Z,61.42
2023-06-29T22:04:48.726Z,62.05
2023-06-29T22:07:17.331Z,65.76
2023-06-29T22:09:45.376Z,62.77
2023-06-29T22:12:13.258Z,56.88
2023-06-29T22:14:41.077Z,55.84
2023-06-29T22:17:09.087Z,57.46
2023-06-29T22:19:38.181Z,58.79
2023-06-29T22:22:08.858Z,59.99
2023-06-29T22:24:36.848Z,60.71
2023-06-29T22:27:04.857Z,61.49
2023-06-29T22:29:32.728Z,65.13
2023-06-29T22:32:00.584Z,62.38
2023-06-29T22:34:28.656Z,56.70
2023-06-29T22:36:56.519Z,56.28
2023-06-29T22:39:24.498Z,57.36
2023-06-29T22:41:52.356Z,58.94
2023-06-29T22:44:20.241Z,60.07
2023-06-29T22:46:48.403Z,60.81
2023-06-29T22:49:16.468Z,61.59
2023-06-29T22:51:44.440Z,65.11
2023-06-29T22:54:12.305Z,62.65
2023-06-29T22:56:40.175Z,56.83
2023-06-29T22:59:08.266Z,56.20
2023-06-29T23:01:36.428Z,57.71
2023-06-29T23:04:04.359Z,59.22
2023-06-29T23:06:32.351Z,60.30
2023-06-29T23:09:04.831Z,61.27
2023-06-29T23:11:32.697Z,61.86
2023-06-29T23:14:00.574Z,65.60
2023-06-29T23:16:28.472Z,62.63
2023-06-29T23:18:56.703Z,57.00
2023-06-29T23:21:27.808Z,56.25
2023-06-29T23:23:55.717Z,57.71
2023-06-29T23:26:23.493Z,59.22
2023-06-29T23:28:52.059Z,60.35
2023-06-29T23:31:19.933Z,61.21
2023-06-29T23:33:48.211Z,62.00
2023-06-29T23:36:16.022Z,65.66
2023-06-29T23:38:49.673Z,62.53
2023-06-29T23:41:17.541Z,56.72
2023-06-29T23:43:45.770Z,55.98
2023-06-29T23:46:13.709Z,57.56
2023-06-29T23:48:41.832Z,59.26
2023-06-29T23:51:10.135Z,59.92
2023-06-29T23:53:38.000Z,60.20
2023-06-29T23:56:05.833Z,61.18
2023-06-29T23:58:33.734Z,65.38
